Time;durP1;ratioP1;P1;durP2;ratioP2;P2;SDS_P1;SDS_P2;PMS_P1;PMS_P2;Temp;Humidity;BMP_temperature;BMP_pressure;BME280_temperature;BME280_humidity;BME280_pressure;Samples;Min_cycle;Max_cycle;Signal;HPM_P1;HPM_P2
2022/08/04 00:00:17;;;;;;;7.07;4.05;;;;;;;23.36;64.91;100731.44;4896601;29;20044;-85
2022/08/04 00:02:49;;;;;;;4.85;2.85;;;;;;;23.32;65.16;100729.88;4871736;29;20048;-87
2022/08/04 00:06:08;;;;;;;5.93;3.55;;;;;;;23.27;65.69;100731.97;4868144;29;20063;-85
2022/08/04 00:09:03;;;;;;;5.13;2.97;;;;;;;23.21;65.43;100730.56;4879778;29;20053;-86
2022/08/04 00:11:32;;;;;;;6.75;3.25;;;;;;;23.13;65.92;100722.97;4879897;29;20643;-86
2022/08/04 00:14:13;;;;;;;6.35;3.60;;;;;;;23.05;66.64;100725.25;4875727;29;20040;-85
2022/08/04 00:16:42;;;;;;;6.03;3.00;;;;;;;23.01;66.66;100714.84;4885171;29;20526;-84
2022/08/04 00:19:17;;;;;;;5.05;2.85;;;;;;;22.98;67.27;100729.22;4881723;29;20071;-86
2022/08/04 00:21:52;;;;;;;4.53;3.22;;;;;;;22.91;67.63;100720.75;4894872;29;20105;-86
2022/08/04 00:24:22;;;;;;;5.25;3.20;;;;;;;22.86;67.49;100716.63;4865357;29;20036;-85
2022/08/04 00:26:48;;;;;;;4.65;3.45;;;;;;;22.82;67.70;100717.78;4893579;29;20056;-85
2022/08/04 00:29:15;;;;;;;3.55;3.15;;;;;;;22.79;67.89;100718.81;4882929;29;20069;-85
2022/08/04 00:31:42;;;;;;;2.95;2.60;;;;;;;22.75;67.86;100718.13;4882190;29;20092;-85
2022/08/04 00:34:13;;;;;;;3.30;2.65;;;;;;;22.73;68.08;100713.84;4861883;29;20059;-85
2022/08/04 00:36:46;;;;;;;2.40;2.30;;;;;;;22.72;68.20;100721.00;4890481;29;20147;-87
2022/08/04 00:39:14;;;;;;;2.65;2.22;;;;;;;22.69;68.38;100723.81;4879529;29;20057;-85
2022/08/04 00:42:28;;;;;;;4.47;3.25;;;;;;;22.68;68.86;100726.59;4861991;29;20049;-85
2022/08/04 00:45:27;;;;;;;;;;;;;;;22.64;69.10;100717.88;4881834;29;20255;-85
2022/08/04 00:48:31;;;;;;;4.47;3.40;;;;;;;22.62;69.34;100717.13;4882721;29;19934;-84
2022/08/04 00:51:19;;;;;;;10.18;3.15;;;;;;;22.59;68.78;100718.19;4881496;29;20047;-86
2022/08/04 00:54:07;;;;;;;4.05;2.70;;;;;;;22.55;69.55;100713.09;4878763;29;20059;-85
2022/08/04 00:56:46;;;;;;;4.90;3.35;;;;;;;22.55;69.38;100719.28;4881688;29;20399;-85
2022/08/04 00:59:35;;;;;;;3.65;2.70;;;;;;;22.53;69.42;100710.53;4871548;29;20053;-87
2022/08/04 01:02:29;;;;;;;6.97;3.00;;;;;;;22.52;69.71;100715.97;4842278;29;20230;-85
2022/08/04 01:05:07;;;;;;;4.85;2.80;;;;;;;22.48;69.59;100706.41;4839179;29;20392;-85
2022/08/04 01:08:04;;;;;;;4.85;2.47;;;;;;;22.44;70.36;100717.25;4852142;29;20057;-85
2022/08/04 01:11:14;;;;;;;4.68;3.53;;;;;;;22.38;71.00;100716.75;4873598;29;20045;-85
2022/08/04 01:14:08;;;;;;;10.07;4.38;;;;;;;22.32;71.17;100712.59;4840594;29;20076;-85
2022/08/04 01:16:47;;;;;;;7.78;3.72;;;;;;;22.24;71.13;100710.38;4874260;29;20642;-86
2022/08/04 01:19:53;;;;;;;4.18;2.97;;;;;;;;;;4855633;29;20073;-87
2022/08/04 01:22:31;;;;;;;3.63;3.28;;;;;;;22.16;71.93;100711.75;4855826;29;20056;-86
2022/08/04 01:25:51;;;;;;;7.30;3.67;;;;;;;22.12;72.33;100709.28;4856164;29;20045;-84
2022/08/04 01:29:08;;;;;;;5.13;2.92;;;;;;;22.02;73.13;100712.50;4847689;29;20053;-88
2022/08/04 01:31:50;;;;;;;7.22;3.22;;;;;;;21.96;72.97;100706.59;4874026;29;20144;-86
2022/08/04 01:34:22;;;;;;;4.53;3.33;;;;;;;21.92;73.06;100712.19;4877119;29;20427;-85
2022/08/04 01:37:00;;;;;;;15.45;3.97;;;;;;;21.91;73.46;100718.47;4849088;29;20049;-86
2022/08/04 01:39:42;;;;;;;3.90;3.03;;;;;;;21.86;73.79;100716.03;4847515;29;20084;-86
2022/08/04 01:42:11;;;;;;;4.95;3.38;;;;;;;21.79;73.86;100712.84;4866771;29;20052;-85
2022/08/04 01:44:42;;;;;;;5.47;3.28;;;;;;;21.76;74.25;100714.84;4866534;29;20040;-84
2022/08/04 01:47:11;;;;;;;4.78;3.22;;;;;;;21.73;74.26;100710.53;4863592;29;20086;-87
2022/08/04 01:49:41;;;;;;;4.90;3.22;;;;;;;21.72;74.35;100713.28;4846678;29;20051;-86
2022/08/04 01:52:10;;;;;;;4.47;3.35;;;;;;;21.70;74.18;100715.19;4860960;29;20045;-85
2022/08/04 01:54:42;;;;;;;7.25;4.03;;;;;;;21.68;74.79;100709.94;4858243;29;20101;-86
2022/08/04 01:57:12;;;;;;;8.10;3.37;;;;;;;21.65;75.08;100707.41;4841326;29;20133;-85
2022/08/04 01:59:40;;;;;;;4.85;3.80;;;;;;;21.64;75.02;100706.56;4855904;29;20703;-86
2022/08/04 02:02:06;;;;;;;4.22;3.28;;;;;;;21.62;75.01;100707.59;4856071;29;20517;-84
2022/08/04 02:04:36;;;;;;;6.35;3.47;;;;;;;21.61;75.45;100708.53;4839878;29;20041;-87
2022/08/04 02:07:49;;;;;;;4.90;2.70;;;;;;;21.59;75.73;100705.09;4838040;29;20052;-85
2022/08/04 02:10:30;;;;;;;5.97;3.63;;;;;;;21.54;76.12;100704.47;4856037;29;20356;-85
2022/08/04 02:13:35;;;;;;;6.18;3.83;;;;;;;21.49;76.36;100700.22;4853493;29;20053;-86
2022/08/04 02:16:22;;;;;;;4.47;3.33;;;;;;;21.46;76.63;100700.41;4854464;29;20041;-86
2022/08/04 02:19:36;;;;;;;6.18;3.70;;;;;;;21.44;76.52;100694.28;4839029;29;20057;-85
2022/08/04 02:22:16;;;;;;;5.22;2.95;;;;;;;21.41;76.65;100694.47;4867524;29;20089;-87
2022/08/04 02:24:50;;;;;;;8.02;2.92;;;;;;;21.38;76.74;100694.63;4855584;29;20068;-85
2022/08/04 02:27:23;;;;;;;8.60;3.70;;;;;;;21.35;76.89;100691.28;4857408;29;20067;-84
2022/08/04 02:29:59;;;;;;;4.10;3.35;;;;;;;21.31;77.05;100690.56;4864409;29;20057;-86
2022/08/04 02:32:29;;;;;;;3.92;3.17;;;;;;;21.25;77.08;100688.22;4859881;29;20049;-87
2022/08/04 02:35:09;;;;;;;7.40;3.97;;;;;;;21.24;77.87;100690.03;4856839;29;20105;-84
2022/08/04 02:37:36;;;;;;;5.88;3.30;;;;;;;21.22;77.63;100686.59;4860786;29;20349;-86
2022/08/04 02:40:06;;;;;;;6.05;3.78;;;;;;;21.21;77.98;100686.69;4841754;29;20048;-86
2022/08/04 02:42:34;;;;;;;10.60;4.10;;;;;;;21.19;79.02;100680.59;4844072;29;20106;-85
2022/08/04 02:45:01;;;;;;;5.75;3.63;;;;;;;21.18;78.98;100678.88;4844975;29;20491;-85
2022/08/04 02:47:29;;;;;;;6.53;3.85;;;;;;;21.17;79.35;100675.31;4874077;29;20036;-87
2022/08/04 02:49:58;;;;;;;5.53;3.78;;;;;;;21.17;79.25;100674.47;4860214;29;20052;-86
2022/08/04 02:52:26;;;;;;;5.20;4.35;;;;;;;21.18;79.31;100677.03;4845337;29;20072;-86
2022/08/04 02:54:57;;;;;;;7.93;3.33;;;;;;;21.17;79.35;100677.97;4857440;29;20601;-87
2022/08/04 02:57:31;;;;;;;11.80;4.45;;;;;;;21.17;79.67;100672.66;4862311;29;20048;-86
2022/08/04 03:00:13;;;;;;;6.32;3.33;;;;;;;21.15;80.02;100666.56;4888000;29;20567;-86
2022/08/04 03:02:59;;;;;;;7.53;3.50;;;;;;;21.12;80.40;100666.75;4891042;29;20053;-86
2022/08/04 03:05:37;;;;;;;7.18;3.72;;;;;;;21.10;80.13;100671.28;4854781;29;20036;-86
2022/08/04 03:08:28;;;;;;;6.60;3.95;;;;;;;21.04;80.92;100661.84;4859214;29;20049;-86
2022/08/04 03:11:51;;;;;;;6.43;3.28;;;;;;;20.97;81.44;100657.75;4889516;29;20127;-85
2022/08/04 03:14:43;;;;;;;3.75;3.28;;;;;;;20.92;81.54;100662.47;4875800;29;20087;-84
2022/08/04 03:18:31;;;;;;;5.50;3.00;;;;;;;20.89;81.85;100663.47;4877458;29;20089;-85
2022/08/04 03:21:19;;;;;;;5.70;3.90;;;;;;;20.84;81.96;100662.84;4856533;29;20049;-85
2022/08/04 03:24:06;;;;;;;4.55;3.33;;;;;;;20.85;82.47;100669.06;4854592;29;20076;-84
2022/08/04 03:27:13;;;;;;;8.60;3.95;;;;;;;20.82;82.54;100654.13;4836587;29;20404;-85
2022/08/04 03:30:20;;;;;;;7.50;3.20;;;;;;;20.80;83.14;100659.50;4859893;29;20054;-85
2022/08/04 03:33:18;;;;;;;4.47;3.67;;;;;;;20.79;83.27;100655.13;4872002;29;20063;-85
2022/08/04 03:36:27;;;;;;;3.92;3.28;;;;;;;20.80;83.32;100661.31;4856581;29;20144;-85
2022/08/04 03:39:20;;;;;;;8.15;3.28;;;;;;;20.80;82.89;100651.50;4859855;29;20129;-86
2022/08/04 03:42:27;;;;;;;4.82;3.63;;;;;;;20.80;83.15;100654.16;4877763;29;20052;-85
2022/08/04 03:45:35;;;;;;;8.60;3.65;;;;;;;20.79;83.41;100657.78;4864396;29;20044;-85
2022/08/04 03:48:40;;;;;;;5.43;3.80;;;;;;;20.79;82.99;100657.78;4863744;29;20079;-84
2022/08/04 03:54:47;;;;;;;9.87;3.90;;;;;;;20.74;83.60;100659.81;4873211;29;20064;-86
2022/08/04 03:57:20;;;;;;;;;;;;;;;20.70;84.69;100658.25;4890692;29;20372;-85
2022/08/04 04:00:07;;;;;;;4.18;3.78;;;;;;;20.71;83.88;100667.94;4890602;29;19956;-83
2022/08/04 04:03:02;;;;;;;8.23;4.05;;;;;;;20.71;83.68;100669.75;4889696;29;20056;-84
2022/08/04 04:05:59;;;;;;;6.80;3.05;;;;;;;20.75;83.86;100663.34;4871699;29;20044;-85
2022/08/04 04:09:23;;;;;;;6.13;4.03;;;;;;;20.77;83.84;100659.66;4880928;29;20147;-85
2022/08/04 04:12:18;;;;;;;7.60;3.92;;;;;;;20.80;83.79;100662.16;4875016;29;20041;-85
2022/08/04 04:15:09;;;;;;;10.82;4.28;;;;;;;20.81;83.71;100661.22;4883142;29;20093;-86
2022/08/04 04:18:16;;;;;;;7.20;4.65;;;;;;;20.84;83.81;100659.34;4902116;29;20052;-84
2022/08/04 04:21:33;;;;;;;7.40;3.53;;;;;;;20.84;83.43;100654.88;4848261;29;20053;-85
2022/08/04 04:24:51;;;;;;;12.38;4.75;;;;;;;20.86;83.65;100666.31;4879694;29;20064;-84
2022/08/04 04:27:32;;;;;;;9.85;4.00;;;;;;;20.86;83.49;100666.31;4826835;29;20115;-84
2022/08/04 04:30:17;;;;;;;10.93;4.10;;;;;;;20.86;83.52;100660.09;4881023;29;20113;-84
2022/08/04 04:32:55;;;;;;;7.22;3.95;;;;;;;20.86;83.41;100654.78;4894351;29;20044;-84
2022/08/04 04:35:55;;;;;;;10.27;4.10;;;;;;;20.88;83.49;100658.25;4889529;29;20056;-84
2022/08/04 04:39:13;;;;;;;9.75;4.38;;;;;;;20.87;83.61;100662.72;4879238;29;20045;-84
2022/08/04 04:42:30;;;;;;;10.98;5.05;;;;;;;20.86;83.42;100665.44;4869251;29;20056;-84
2022/08/04 04:45:22;;;;;;;13.05;5.18;;;;;;;20.89;83.23;100660.81;4850638;29;20557;-85
2022/08/04 04:48:08;;;;;;;7.78;4.30;;;;;;;20.91;83.34;100664.28;4862387;29;20049;-84
2022/08/04 04:50:57;;;;;;;6.43;3.60;;;;;;;20.91;83.16;100660.72;4871740;29;20053;-84
2022/08/04 04:53:47;;;;;;;7.68;3.92;;;;;;;20.93;83.60;100665.03;4879186;29;20052;-86
2022/08/04 04:56:48;;;;;;;7.45;4.18;;;;;;;20.95;83.35;100659.63;4881209;29;20071;-85
2022/08/04 04:59:22;;;;;;;7.30;4.40;;;;;;;20.99;82.69;100656.75;4874486;29;20449;-84
2022/08/04 05:02:41;;;;;;;13.40;4.10;;;;;;;21.08;82.53;100663.38;4869362;29;20049;-85
2022/08/04 05:06:08;;;;;;;9.50;4.03;;;;;;;21.18;81.66;100658.41;4866767;29;20052;-85
2022/08/04 05:09:20;;;;;;;5.40;4.50;;;;;;;21.27;81.06;100668.56;4867936;29;20048;-85
2022/08/04 05:12:15;;;;;;;7.88;4.85;;;;;;;21.35;80.64;100662.00;4876939;29;20424;-85
2022/08/04 05:14:47;;;;;;;5.97;3.70;;;;;;;21.38;80.43;100668.00;4878680;29;20045;-85
2022/08/04 05:17:29;;;;;;;7.55;4.30;;;;;;;21.39;80.15;100663.53;4866028;29;20048;-84
2022/08/04 05:20:16;;;;;;;7.68;4.38;;;;;;;21.37;80.02;100654.75;4881191;29;20048;-85
2022/08/04 05:22:53;;;;;;;9.00;4.38;;;;;;;21.36;80.09;100661.91;4871363;29;20052;-85
2022/08/04 05:25:55;;;;;;;5.00;3.83;;;;;;;21.35;80.46;100654.00;4874212;29;20060;-86
2022/08/04 05:28:52;;;;;;;7.35;3.95;;;;;;;21.36;80.26;100653.91;4862152;29;20059;-84
2022/08/04 05:31:28;;;;;;;9.35;4.25;;;;;;;21.36;80.29;100653.91;4876988;29;20053;-85
2022/08/04 05:33:58;;;;;;;5.07;3.83;;;;;;;21.36;80.21;100647.72;4860279;29;20120;-84
2022/08/04 05:36:35;;;;;;;9.05;4.03;;;;;;;21.35;80.10;100657.50;4859395;29;20061;-85
2022/08/04 05:39:06;;;;;;;6.05;3.13;;;;;;;21.36;80.10;100651.25;4877467;29;20044;-85
2022/08/04 05:41:34;;;;;;;6.15;3.90;;;;;;;21.38;79.81;100649.38;4894338;29;20158;-87
2022/08/04 05:44:02;;;;;;;4.45;4.05;;;;;;;21.42;79.82;100648.25;4878499;29;20057;-85
2022/08/04 05:46:30;;;;;;;6.18;4.03;;;;;;;21.47;79.63;100645.31;4881457;29;20086;-86
2022/08/04 05:48:57;;;;;;;6.45;4.15;;;;;;;21.53;79.61;100649.47;4876941;29;20040;-85
2022/08/04 05:51:25;;;;;;;8.13;4.05;;;;;;;21.60;79.17;100645.53;4892991;29;20121;-84
2022/08/04 05:53:54;;;;;;;4.78;3.78;;;;;;;21.68;78.62;100647.78;4888721;29;20129;-85
2022/08/04 05:56:21;;;;;;;6.00;3.50;;;;;;;21.77;78.07;100636.59;4891611;29;20033;-85
2022/08/04 05:58:51;;;;;;;3.92;3.58;;;;;;;21.86;77.21;100633.41;4866170;29;20623;-85
2022/08/04 06:01:20;;;;;;;5.88;3.63;;;;;;;21.94;76.70;100633.00;4874433;29;20053;-85
2022/08/04 06:03:51;;;;;;;7.25;3.38;;;;;;;22.04;76.07;100633.34;4851725;29;20059;-86
2022/08/04 06:06:19;;;;;;;4.15;3.65;;;;;;;22.16;75.59;100629.09;4863681;29;20044;-85
2022/08/04 06:08:47;;;;;;;5.68;2.95;;;;;;;22.22;75.14;100634.94;4881186;29;20055;-86
2022/08/04 06:11:15;;;;;;;4.47;3.05;;;;;;;22.27;74.97;100630.19;4874810;29;20053;-85
2022/08/04 06:13:54;;;;;;;5.32;3.40;;;;;;;22.35;74.51;100631.56;4876781;29;20083;-86
2022/08/04 06:16:24;;;;;;;9.63;3.70;;;;;;;22.38;74.50;100631.41;4879206;29;20132;-86
2022/08/04 06:18:53;;;;;;;5.13;3.85;;;;;;;22.41;74.12;100636.53;4874887;29;20107;-85
2022/08/04 06:21:25;;;;;;;3.53;3.22;;;;;;;22.48;74.31;100632.56;4885841;29;20044;-85
2022/08/04 06:23:55;;;;;;;6.13;3.42;;;;;;;22.59;73.94;100629.25;4873087;29;20052;-88
2022/08/04 06:26:26;;;;;;;9.07;4.20;;;;;;;22.69;73.26;100625.09;4861721;29;20166;-84
2022/08/04 06:28:54;;;;;;;5.28;2.88;;;;;;;22.84;72.66;100626.00;4872515;29;20070;-85
2022/08/04 06:31:42;;;;;;;7.47;2.90;;;;;;;22.99;72.01;100626.00;4887685;29;20093;-85
2022/08/04 06:34:11;;;;;;;4.60;3.38;;;;;;;23.17;71.46;100621.38;4858886;29;20416;-85
2022/08/04 06:36:41;;;;;;;6.60;3.22;;;;;;;23.30;70.14;100622.31;4874283;29;20051;-85
2022/08/04 06:39:10;;;;;;;4.88;3.40;;;;;;;23.44;69.41;100616.06;4871632;29;20139;-86
2022/08/04 06:41:37;;;;;;;9.90;3.58;;;;;;;23.55;68.51;100618.06;4878013;29;20056;-86
2022/08/04 06:44:10;;;;;;;10.77;3.88;;;;;;;23.68;67.22;100608.31;4876923;29;20386;-88
2022/08/04 06:46:41;;;;;;;4.47;2.80;;;;;;;23.80;66.65;100609.31;4896114;29;20130;-87
2022/08/04 06:49:08;;;;;;;9.63;3.20;;;;;;;23.97;66.54;100605.56;4872152;29;20061;-86
2022/08/04 06:51:40;;;;;;;2.90;2.28;;;;;;;24.09;65.72;100607.44;4873456;29;20052;-87
2022/08/04 06:54:08;;;;;;;4.22;2.72;;;;;;;24.24;64.50;100602.84;4859762;29;20147;-87
2022/08/04 06:56:36;;;;;;;2.83;2.50;;;;;;;24.27;63.77;100608.03;4852523;29;20153;-87
2022/08/04 06:59:04;;;;;;;3.58;3.13;;;;;;;24.30;63.91;100600.72;4873901;29;20064;-86
2022/08/04 07:01:32;;;;;;;3.40;2.17;;;;;;;24.39;63.65;100597.44;4871466;29;20041;-87
2022/08/04 07:04:00;;;;;;;3.17;2.28;;;;;;;24.55;63.37;100602.59;4857771;29;20053;-87
2022/08/04 07:06:27;;;;;;;4.15;2.15;;;;;;;24.74;62.58;100603.09;4874316;29;20084;-89
2022/08/04 07:08:55;;;;;;;4.80;2.53;;;;;;;24.99;61.27;100597.81;4859760;29;20056;-87
2022/08/04 07:11:23;;;;;;;5.00;2.58;;;;;;;25.29;59.85;100599.28;4862014;29;20060;-87
2022/08/04 07:13:50;;;;;;;4.72;2.90;;;;;;;25.67;59.09;100595.66;4874347;29;20044;-88
2022/08/04 07:16:20;;;;;;;4.65;2.83;;;;;;;26.09;57.54;100599.69;4861836;29;20056;-87
2022/08/04 07:18:47;;;;;;;4.38;2.80;;;;;;;26.53;55.83;100597.25;4865161;29;20132;-87
2022/08/04 07:21:21;;;;;;;2.42;2.22;;;;;;;26.96;54.30;100601.13;4878975;29;20056;-82
2022/08/04 07:23:49;;;;;;;3.83;2.13;;;;;;;27.48;52.48;100595.25;4862684;29;20045;-83
2022/08/04 07:26:18;;;;;;;3.15;2.45;;;;;;;27.95;51.67;100595.00;4877204;29;20453;-84
2022/08/04 07:28:46;;;;;;;2.17;2.03;;;;;;;28.60;50.39;100597.66;4863275;29;20048;-83
2022/08/04 07:31:22;;;;;;;5.82;2.50;;;;;;;29.29;47.86;100591.63;4861805;29;20458;-83
2022/08/04 07:33:49;;;;;;;3.33;2.55;;;;;;;29.86;46.52;100589.19;4874003;29;20129;-84
2022/08/04 07:36:16;;;;;;;5.30;2.85;;;;;;;30.28;44.73;100588.06;4873191;29;20041;-83
2022/08/04 07:38:44;;;;;;;2.30;2.10;;;;;;;30.64;44.09;100585.63;4861921;29;20057;-84
2022/08/04 07:41:11;;;;;;;3.08;2.35;;;;;;;31.17;43.08;100588.72;4888832;29;20128;-83
2022/08/04 07:43:38;;;;;;;2.60;2.15;;;;;;;31.64;41.42;100591.34;4874432;29;20049;-83
2022/08/04 07:46:05;;;;;;;4.80;1.80;;;;;;;31.60;40.89;100581.78;4876420;29;20305;-83
2022/08/04 07:48:32;;;;;;;3.45;2.15;;;;;;;30.88;40.87;100583.41;4860493;29;20453;-83
2022/08/04 07:50:59;;;;;;;2.78;1.90;;;;;;;30.28;41.56;100593.47;4874303;29;20408;-84
2022/08/04 07:53:27;;;;;;;2.05;1.95;;;;;;;30.30;41.83;100590.66;4860571;29;20075;-85
2022/08/04 07:55:55;;;;;;;7.55;2.60;;;;;;;30.77;41.28;100584.44;4875622;29;20052;-84
2022/08/04 07:58:22;;;;;;;2.50;1.63;;;;;;;31.46;40.06;100577.75;4859517;29;20136;-84
2022/08/04 08:00:49;;;;;;;3.95;2.42;;;;;;;32.08;38.36;100581.56;4859467;29;20053;-81
2022/08/04 08:03:16;;;;;;;2.25;2.08;;;;;;;32.41;38.19;100579.16;4841245;29;20385;-83
2022/08/04 08:05:43;;;;;;;4.10;2.05;;;;;;;32.63;36.90;100580.47;4852024;29;20163;-82
2022/08/04 08:08:10;;;;;;;5.25;1.83;;;;;;;32.89;36.26;100575.06;4854420;29;20103;-83
2022/08/04 08:10:38;;;;;;;2.55;2.20;;;;;;;33.19;35.98;100580.94;4857599;29;20049;-82
2022/08/04 08:13:07;;;;;;;3.60;1.85;;;;;;;33.55;35.46;100582.63;4857856;29;20105;-82
2022/08/04 08:15:35;;;;;;;4.43;2.22;;;;;;;33.77;34.80;100575.72;4872730;29;20245;-82
2022/08/04 08:18:02;;;;;;;3.47;1.98;;;;;;;34.10;33.91;100573.03;4858642;29;20069;-83
2022/08/04 08:20:31;;;;;;;2.45;1.65;;;;;;;34.47;33.36;100571.66;4840992;29;20060;-83
2022/08/04 08:23:02;;;;;;;2.92;2.25;;;;;;;34.92;32.64;100563.94;4871353;29;20060;-83
2022/08/04 08:25:32;;;;;;;5.05;1.90;;;;;;;35.40;31.42;100561.19;4856982;29;20043;-81
2022/08/04 08:27:59;;;;;;;3.00;2.05;;;;;;;35.58;31.76;100559.03;4837059;29;20654;-82
2022/08/04 08:30:28;;;;;;;4.60;2.35;;;;;;;35.79;31.16;100560.25;4841779;29;20535;-83
2022/08/04 08:32:57;;;;;;;2.92;2.13;;;;;;;35.85;30.85;100555.97;4853900;29;20069;-83
2022/08/04 08:35:29;;;;;;;4.93;2.30;;;;;;;36.16;29.87;100558.59;4838629;29;20045;-83
2022/08/04 08:38:03;;;;;;;2.83;2.03;;;;;;;36.16;29.64;100558.59;4850891;29;20152;-83
2022/08/04 08:40:42;;;;;;;2.08;1.80;;;;;;;36.20;29.33;100561.81;4838549;29;20109;-84
2022/08/04 08:43:20;;;;;;;3.30;1.90;;;;;;;36.51;28.94;100550.78;4854696;29;20045;-83
2022/08/04 08:46:11;;;;;;;2.85;2.20;;;;;;;36.80;28.71;100553.69;4871726;29;20401;-83
2022/08/04 08:49:05;;;;;;;3.10;1.73;;;;;;;37.44;26.94;100549.50;4854472;29;20053;-83
2022/08/04 08:51:52;;;;;;;2.20;1.92;;;;;;;37.99;26.91;100547.09;4869563;29;20041;-83
2022/08/04 08:54:40;;;;;;;7.82;2.42;;;;;;;38.41;25.19;100550.84;4853249;29;20045;-84
2022/08/04 08:57:55;;;;;;;2.45;1.58;;;;;;;39.12;24.55;100544.25;4855590;29;20112;-83
2022/08/04 09:00:46;;;;;;;2.55;1.90;;;;;;;39.32;24.62;100547.09;4862360;29;20049;-83
2022/08/04 09:04:00;;;;;;;3.72;1.77;;;;;;;39.49;23.86;100547.56;4863340;29;20068;-84
2022/08/04 09:06:54;;;;;;;1.98;1.88;;;;;;;39.91;23.30;100550.16;4811242;29;20088;-83
2022/08/04 09:10:00;;;;;;;2.63;1.88;;;;;;;40.21;22.66;100537.94;4858878;29;20057;-82
2022/08/04 09:13:00;;;;;;;2.30;1.90;;;;;;;40.47;22.49;100543.38;4868008;29;20056;-83
2022/08/04 09:15:39;;;;;;;3.17;1.60;;;;;;;40.91;22.95;100543.69;4845108;29;20527;-83
2022/08/04 09:18:34;;;;;;;1.77;1.67;;;;;;;41.71;22.08;100534.19;4841320;29;20064;-82
2022/08/04 09:21:24;;;;;;;3.67;1.70;;;;;;;41.95;19.98;100537.19;4860627;29;20056;-84
2022/08/04 09:24:04;;;;;;;3.00;1.45;;;;;;;42.00;20.69;100531.88;4872800;29;20053;-83
2022/08/04 09:26:50;;;;;;;1.30;1.30;;;;;;;42.44;19.43;100534.66;4846089;29;20148;-84
2022/08/04 09:29:39;;;;;;;5.90;1.63;;;;;;;42.15;19.39;100528.75;4846605;29;20045;-83
2022/08/04 09:32:22;;;;;;;2.83;1.58;;;;;;;42.50;19.46;100532.88;4865113;29;20179;-82
2022/08/04 09:35:38;;;;;;;1.80;1.40;;;;;;;42.89;18.57;100525.25;4847333;29;20135;-83
2022/08/04 09:38:28;;;;;;;1.48;1.48;;;;;;;43.62;17.89;100521.47;4877985;29;20089;-83
2022/08/04 09:41:32;;;;;;;1.98;1.70;;;;;;;43.91;17.33;100520.81;4859853;29;20080;-85
2022/08/04 09:44:44;;;;;;;2.13;0.90;;;;;;;43.84;16.49;100520.91;4862931;29;20070;-84
2022/08/04 09:47:39;;;;;;;;;;;;;;;44.10;16.52;100521.53;4843878;29;20049;-85
2022/08/04 09:50:15;;;;;;;1.50;1.40;;;;;;;44.26;16.72;100515.31;4859058;29;19927;-83
2022/08/04 09:53:22;;;;;;;1.52;1.48;;;;;;;44.63;16.43;100518.84;4872286;29;20044;-84
2022/08/04 09:56:10;;;;;;;2.80;1.35;;;;;;;44.99;16.42;100514.91;4859379;29;20049;-83
2022/08/04 09:59:13;;;;;;;2.20;1.25;;;;;;;44.16;16.18;100516.97;4872783;29;20061;-83
2022/08/04 10:01:42;;;;;;;3.10;1.70;;;;;;;44.11;16.96;100513.03;4873532;29;20047;-83
2022/08/04 10:04:13;;;;;;;1.30;1.20;;;;;;;44.84;16.23;100512.69;4855970;29;20076;-83
2022/08/04 10:07:03;;;;;;;;;;;;;;;45.16;15.49;100512.22;4848161;29;20061;-85
2022/08/04 10:09:43;;;;;;;3.03;1.67;;;;;;;45.53;15.84;100503.50;4857722;29;19938;-83
2022/08/04 10:13:06;;;;;;;1.87;1.77;;;;;;;45.61;15.36;100506.94;4844495;29;20061;-83
2022/08/04 10:15:48;;;;;;;2.85;1.45;;;;;;;45.95;15.13;100501.41;4862351;29;20120;-85
2022/08/04 10:18:47;;;;;;;1.13;1.13;;;;;;;46.65;14.12;100497.13;4846080;29;20416;-84
2022/08/04 10:21:43;;;;;;;1.33;1.20;;;;;;;46.29;14.72;100493.91;4862251;29;20048;-84
2022/08/04 10:24:53;;;;;;;2.42;1.23;;;;;;;46.52;14.59;100506.66;4844889;29;20041;-83
2022/08/04 10:27:33;;;;;;;1.70;1.70;;;;;;;46.40;14.50;100492.97;4875848;29;20059;-83
2022/08/04 10:30:10;;;;;;;1.42;1.33;;;;;;;46.81;14.55;100495.41;4883121;29;20053;-84
2022/08/04 10:32:43;;;;;;;1.30;1.30;;;;;;;47.85;13.79;100497.22;4877536;29;20062;-83
2022/08/04 10:35:22;;;;;;;2.83;1.60;;;;;;;48.36;13.55;100492.00;4864731;29;20061;-83
2022/08/04 10:38:23;;;;;;;4.45;1.20;;;;;;;48.31;13.10;100489.19;4844086;29;20045;-83
2022/08/04 10:41:11;;;;;;;2.85;1.30;;;;;;;47.37;13.24;100484.06;4862456;29;20148;-85
2022/08/04 10:44:22;;;;;;;1.20;1.20;;;;;;;46.97;13.54;100482.53;4860607;29;20049;-84
2022/08/04 10:46:57;;;;;;;1.02;1.02;;;;;;;47.03;13.44;100481.50;4876735;29;20470;-85
2022/08/04 10:49:47;;;;;;;1.55;1.27;;;;;;;47.61;13.28;100474.56;4874063;29;20413;-84
2022/08/04 10:52:36;;;;;;;2.22;1.30;;;;;;;48.47;12.98;100473.41;4864299;29;20065;-84
2022/08/04 10:55:47;;;;;;;1.50;1.40;;;;;;;48.64;12.78;100470.44;4884905;29;20060;-85
2022/08/04 10:58:19;;;;;;;;;;;;;;;47.98;13.01;100468.16;4872074;29;20057;-84
2022/08/04 11:00:48;;;;;;;2.78;1.55;;;;;;;46.45;14.42;100472.78;4885451;29;19923;-84
2022/08/04 11:03:24;;;;;;;2.53;1.60;;;;;;;45.53;15.04;100478.63;4869265;29;20408;-83
2022/08/04 11:06:01;;;;;;;1.65;1.52;;;;;;;46.28;14.53;100475.63;4871521;29;20048;-83
2022/08/04 11:08:59;;;;;;;1.70;1.10;;;;;;;46.56;13.80;100476.53;4889803;29;20048;-83
2022/08/04 11:11:45;;;;;;;1.17;1.08;;;;;;;45.31;14.55;100461.94;4884315;29;20056;-83
2022/08/04 11:14:17;;;;;;;1.48;1.30;;;;;;;44.71;15.50;100458.59;4870133;29;20048;-84
2022/08/04 11:16:58;;;;;;;1.50;1.40;;;;;;;43.81;16.29;100469.00;4869848;29;20048;-84
2022/08/04 11:19:35;;;;;;;0.77;0.77;;;;;;;44.03;16.10;100463.75;4870073;29;20469;-83
2022/08/04 11:22:26;;;;;;;2.15;2.03;;;;;;;45.13;15.36;100471.28;4880179;29;20463;-84
2022/08/04 11:25:09;;;;;;;1.10;1.10;;;;;;;45.37;14.91;100472.00;4880870;29;20120;-84
2022/08/04 11:27:52;;;;;;;1.45;1.45;;;;;;;45.07;14.97;100461.19;4898314;29;20124;-83
2022/08/04 11:30:20;;;;;;;1.60;1.50;;;;;;;45.16;15.32;100459.72;4887145;29;20064;-80
2022/08/04 11:33:19;;;;;;;2.15;1.08;;;;;;;45.03;15.19;100463.59;4870004;29;20086;-84
2022/08/04 11:36:17;;;;;;;1.65;1.30;;;;;;;45.21;15.22;100453.47;4889045;29;20468;-83
2022/08/04 11:39:01;;;;;;;1.45;1.33;;;;;;;44.97;15.49;100448.06;4885922;29;20372;-82
2022/08/04 11:42:07;;;;;;;1.20;1.10;;;;;;;44.61;15.35;100450.91;4873234;29;20139;-84
2022/08/04 11:44:58;;;;;;;1.85;1.75;;;;;;;45.04;15.31;100454.25;4879431;29;20084;-84
2022/08/04 11:47:31;;;;;;;1.50;1.30;;;;;;;45.75;14.61;100458.50;4868778;29;20053;-82
2022/08/04 11:50:29;;;;;;;1.33;1.33;;;;;;;45.86;14.59;100454.78;4879734;29;20415;-83
2022/08/04 11:52:57;;;;;;;1.48;1.38;;;;;;;45.77;14.99;100458.28;4885169;29;20047;-83
2022/08/04 11:55:27;;;;;;;1.35;1.35;;;;;;;46.55;14.03;100458.25;4872624;29;20927;-83
2022/08/04 11:57:54;;;;;;;4.38;1.58;;;;;;;47.17;13.65;100450.63;4869729;29;20056;-84
2022/08/04 12:00:28;;;;;;;1.73;1.13;;;;;;;48.12;12.86;100449.94;4879759;29;20100;-83
2022/08/04 12:03:27;;;;;;;1.20;1.20;;;;;;;47.93;13.34;100449.56;4877137;29;20055;-83
2022/08/04 12:06:20;;;;;;;1.15;1.10;;;;;;;48.02;13.09;100455.41;4894942;29;20540;-82
2022/08/04 12:09:39;;;;;;;1.95;1.08;;;;;;;48.33;12.96;100453.69;4880444;29;20052;-81
2022/08/04 12:12:38;;;;;;;1.83;1.40;;;;;;;48.94;12.70;100449.41;4892206;29;20055;-82
2022/08/04 12:15:31;;;;;;;3.88;1.38;;;;;;;48.46;13.05;100449.53;4874800;29;20045;-83
2022/08/04 12:18:16;;;;;;;2.33;1.60;;;;;;;47.05;13.75;100440.56;4865821;29;20076;-82
2022/08/04 12:20:49;;;;;;;1.05;1.05;;;;;;;46.85;14.14;100445.88;4876294;29;20052;-83
2022/08/04 12:23:26;;;;;;;1.67;1.10;;;;;;;46.96;13.95;100444.84;4893944;29;20045;-83
2022/08/04 12:26:00;;;;;;;1.80;1.45;;;;;;;46.38;14.31;100441.72;4860666;29;20051;-84
2022/08/04 12:28:34;;;;;;;2.05;1.30;;;;;;;44.59;15.32;100441.19;4880240;29;20135;-82
2022/08/04 12:31:27;;;;;;;2.50;1.05;;;;;;;43.81;15.97;100446.94;4862258;29;20064;-85
2022/08/04 12:34:04;;;;;;;2.38;1.30;;;;;;;43.02;16.78;100449.88;4873151;29;20458;-82
2022/08/04 12:36:55;;;;;;;1.38;1.38;;;;;;;43.71;15.83;100431.00;4888680;29;20041;-83
2022/08/04 12:39:27;;;;;;;1.52;1.10;;;;;;;44.01;16.01;100429.22;4880753;29;20074;-83
2022/08/04 12:42:21;;;;;;;4.07;1.20;;;;;;;45.19;15.31;100426.09;4875192;29;20047;-84